createdAt,value
2023-04-18T00:01:29.647Z,6.63
2023-04-18T00:03:56.686Z,6.13
2023-04-18T00:06:23.494Z,7.33
2023-04-18T00:08:50.147Z,7.23
2023-04-18T00:11:16.906Z,7.03
2023-04-18T00:13:44.398Z,6.93
2023-04-18T00:16:13.345Z,6.73
2023-04-18T00:18:40.495Z,7.70
2023-04-18T00:21:08.620Z,7.17
2023-04-18T00:23:36.156Z,7.07
2023-04-18T00:26:02.943Z,7.50
2023-04-18T00:28:29.742Z,7.43
2023-04-18T00:30:56.640Z,7.60
2023-04-18T00:33:23.423Z,7.87
2023-04-18T00:35:50.203Z,7.33
2023-04-18T00:38:16.909Z,6.87
2023-04-18T00:40:43.566Z,7.03
2023-04-18T00:43:13.585Z,7.57
2023-04-18T00:45:40.272Z,7.83
2023-04-18T00:48:07.288Z,7.03
2023-04-18T00:50:34.120Z,7.47
2023-04-18T00:53:01.010Z,7.73
2023-04-18T00:55:29.554Z,8.17
2023-04-18T00:57:56.261Z,7.93
2023-04-18T01:00:23.064Z,7.50
2023-04-18T01:02:53.199Z,7.77
2023-04-18T01:05:21.490Z,7.60
2023-04-18T01:07:48.927Z,8.03
2023-04-18T01:10:15.850Z,7.63
2023-04-18T01:12:42.495Z,7.77
2023-04-18T01:15:09.357Z,7.47
2023-04-18T01:17:36.039Z,8.30
2023-04-18T01:20:06.048Z,8.37
2023-04-18T01:22:33.270Z,8.10
2023-04-18T01:25:00.061Z,8.20
2023-04-18T01:27:26.846Z,8.47
2023-04-18T01:29:53.681Z,8.63
2023-04-18T01:32:20.689Z,8.80
2023-04-18T01:34:47.679Z,7.80
2023-04-18T01:37:14.509Z,8.30
2023-04-18T01:39:41.262Z,8.93
2023-04-18T01:42:08.078Z,8.53
2023-04-18T01:44:34.773Z,7.90
2023-04-18T01:47:01.595Z,8.13
2023-04-18T01:49:28.468Z,8.57
2023-04-18T01:51:55.212Z,8.97
2023-04-18T01:54:21.845Z,8.80
2023-04-18T01:56:48.543Z,8.07
2023-04-18T01:59:15.225Z,8.63
2023-04-18T02:01:42.862Z,8.17
2023-04-18T02:04:09.624Z,7.57
2023-04-18T02:06:36.369Z,8.07
2023-04-18T02:09:03.056Z,7.53
2023-04-18T02:11:30.035Z,8.70
2023-04-18T02:13:56.746Z,8.53
2023-04-18T02:16:23.591Z,8.30
2023-04-18T02:18:52.785Z,8.13
2023-04-18T02:21:19.505Z,8.13
2023-04-18T02:23:46.191Z,7.77
2023-04-18T02:26:12.898Z,7.93
2023-04-18T02:28:39.673Z,8.37
2023-04-18T02:31:07.862Z,7.80
2023-04-18T02:33:34.617Z,8.00
2023-04-18T02:36:01.871Z,7.70
2023-04-18T02:38:28.566Z,8.00
2023-04-18T02:40:56.060Z,8.13
2023-04-18T02:43:22.740Z,7.70
2023-04-18T02:45:49.541Z,6.93
2023-04-18T02:48:16.340Z,7.30
2023-04-18T02:50:43.058Z,7.17
2023-04-18T02:53:09.707Z,7.27
2023-04-18T02:55:37.251Z,7.77
2023-04-18T02:58:03.908Z,7.70
2023-04-18T03:00:30.602Z,7.07
2023-04-18T03:02:57.425Z,7.37
2023-04-18T03:05:24.249Z,6.87
2023-04-18T03:07:50.941Z,6.43
2023-04-18T03:10:17.768Z,7.67
2023-04-18T03:12:44.469Z,6.80
2023-04-18T03:15:11.479Z,6.90
2023-04-18T03:17:38.223Z,6.97
2023-04-18T03:20:05.693Z,6.30
2023-04-18T03:22:32.382Z,6.10
2023-04-18T03:25:00.686Z,7.13
2023-04-18T03:27:27.488Z,6.87
2023-04-18T03:29:54.138Z,6.83
2023-04-18T03:32:21.024Z,6.97
2023-04-18T03:34:48.715Z,6.80
2023-04-18T03:37:15.379Z,6.43
2023-04-18T03:39:42.101Z,7.20
2023-04-18T03:42:08.838Z,7.17
2023-04-18T03:44:35.579Z,7.50
2023-04-18T03:47:02.402Z,6.70
2023-04-18T03:49:29.083Z,6.83
2023-04-18T03:51:55.749Z,7.63
2023-04-18T03:54:22.406Z,7.13
2023-04-18T03:56:49.236Z,6.97
2023-04-18T03:59:16.320Z,7.50
2023-04-18T04:01:43.037Z,6.97
2023-04-18T04:04:12.150Z,6.90
2023-04-18T04:06:39.297Z,7.87
2023-04-18T04:09:06.409Z,7.27
2023-04-18T04:11:33.216Z,6.90
2023-04-18T04:13:59.972Z,6.90
2023-04-18T04:16:28.021Z,7.20
2023-04-18T04:18:54.717Z,7.30
2023-04-18T04:21:21.418Z,7.77
2023-04-18T04:23:48.179Z,8.37
2023-04-18T04:26:15.871Z,7.30
2023-04-18T04:28:46.346Z,6.73
2023-04-18T04:31:13.089Z,7.33
2023-04-18T04:33:41.032Z,6.60
2023-04-18T04:36:08.978Z,6.67
2023-04-18T04:38:38.313Z,6.80
2023-04-18T04:41:09.244Z,6.63
2023-04-18T04:43:36.268Z,5.90
2023-04-18T04:46:04.313Z,6.67
2023-04-18T04:48:31.097Z,5.77
2023-04-18T04:50:59.494Z,6.37
2023-04-18T04:53:28.189Z,6.10
2023-04-18T04:55:55.026Z,5.90
2023-04-18T04:58:21.683Z,6.27
2023-04-18T05:00:48.403Z,6.20
2023-04-18T05:03:15.522Z,6.30
2023-04-18T05:05:42.618Z,6.30
2023-04-18T05:08:09.292Z,6.00
2023-04-18T05:10:38.725Z,6.07
2023-04-18T05:13:05.455Z,5.90
2023-04-18T05:15:32.430Z,5.93
2023-04-18T05:17:59.322Z,6.50
2023-04-18T05:20:26.141Z,6.30
2023-04-18T05:22:52.812Z,6.10
2023-04-18T05:25:19.970Z,7.00
2023-04-18T05:27:47.158Z,6.17
2023-04-18T05:30:14.297Z,6.20
2023-04-18T05:32:41.087Z,6.73
2023-04-18T05:35:08.423Z,6.63
2023-04-18T05:37:35.466Z,7.17
2023-04-18T05:40:02.871Z,7.20
2023-04-18T05:42:29.560Z,8.30
2023-04-18T05:44:56.237Z,7.63
2023-04-18T05:47:24.223Z,7.70
2023-04-18T05:49:51.011Z,8.30
2023-04-18T05:52:17.696Z,8.37
2023-04-18T05:54:44.406Z,8.57
2023-04-18T05:57:11.139Z,8.03
2023-04-18T05:59:37.919Z,8.70
2023-04-18T06:02:04.724Z,8.93
2023-04-18T06:04:31.605Z,8.53
2023-04-18T06:06:58.537Z,9.10
2023-04-18T06:09:25.213Z,8.83
2023-04-18T06:11:51.930Z,8.20
2023-04-18T06:14:18.607Z,9.40
2023-04-18T06:16:45.302Z,8.77
2023-04-18T06:19:11.970Z,9.00
2023-04-18T06:21:39.566Z,9.00
2023-04-18T06:24:06.780Z,8.97
2023-04-18T06:26:33.560Z,8.70
2023-04-18T06:29:00.310Z,8.60
2023-04-18T06:31:27.128Z,8.90
2023-04-18T06:33:53.876Z,9.90
2023-04-18T06:36:21.421Z,8.23
2023-04-18T06:38:48.121Z,9.10
2023-04-18T06:41:15.914Z,8.83
2023-04-18T06:43:52.062Z,8.73
2023-04-18T06:46:28.671Z,8.70
2023-04-18T06:48:55.433Z,9.17
2023-04-18T06:51:22.164Z,9.00
2023-04-18T06:53:52.506Z,9.57
2023-04-18T06:56:20.580Z,9.00
2023-04-18T06:58:47.875Z,8.77
2023-04-18T07:01:14.717Z,8.37
2023-04-18T07:03:41.416Z,8.90
2023-04-18T07:06:10.572Z,9.13
2023-04-18T07:08:37.470Z,9.20
2023-04-18T07:11:04.299Z,9.67
2023-04-18T07:13:31.016Z,9.03
2023-04-18T07:15:57.763Z,9.00
2023-04-18T07:18:36.740Z,9.20
2023-04-18T07:21:07.493Z,8.47
2023-04-18T07:23:34.834Z,9.63
2023-04-18T07:26:02.884Z,8.93
2023-04-18T07:28:31.152Z,9.50
2023-04-18T07:30:58.220Z,9.30
2023-04-18T07:33:25.584Z,9.73
2023-04-18T07:35:53.096Z,9.40
2023-04-18T07:38:20.057Z,9.37
2023-04-18T07:40:47.107Z,9.50
2023-04-18T07:43:13.785Z,9.37
2023-04-18T07:45:43.439Z,9.13
2023-04-18T07:48:11.354Z,9.40
2023-04-18T07:50:38.130Z,9.97
2023-04-18T07:53:04.933Z,9.13
2023-04-18T07:55:31.904Z,8.67
2023-04-18T07:57:58.539Z,9.57
2023-04-18T08:00:25.272Z,9.07
2023-04-18T08:02:52.217Z,9.60
2023-04-18T08:05:19.913Z,9.13
2023-04-18T08:07:46.593Z,9.67
2023-04-18T08:10:13.367Z,8.60
2023-04-18T08:12:40.699Z,8.93
2023-04-18T08:15:08.179Z,9.83
2023-04-18T08:17:34.988Z,9.03
2023-04-18T08:20:05.067Z,8.83
2023-04-18T08:22:31.871Z,8.83
2023-04-18T08:25:05.086Z,9.03
2023-04-18T08:27:32.694Z,9.67
2023-04-18T08:29:59.534Z,9.00
2023-04-18T08:32:26.329Z,8.43
2023-04-18T08:34:53.097Z,9.23
2023-04-18T08:37:19.796Z,9.37
2023-04-18T08:39:46.493Z,9.50
2023-04-18T08:42:19.394Z,8.57
2023-04-18T08:44:47.265Z,10.00
2023-04-18T08:47:14.731Z,8.97
2023-04-18T08:49:42.688Z,9.27
2023-04-18T08:52:18.995Z,8.33
2023-04-18T08:54:47.217Z,9.30
2023-04-18T08:57:16.708Z,9.43
2023-04-18T08:59:47.117Z,8.43
2023-04-18T09:02:15.670Z,8.80
2023-04-18T09:04:52.671Z,8.93
2023-04-18T09:07:30.955Z,10.20
2023-04-18T09:09:58.212Z,8.83
2023-04-18T09:12:27.098Z,9.40
2023-04-18T09:14:59.686Z,9.03
2023-04-18T09:17:38.076Z,9.33
2023-04-18T09:20:06.180Z,8.57
2023-04-18T09:22:52.997Z,8.80
2023-04-18T09:25:40.056Z,8.80
2023-04-18T09:28:31.918Z,8.77
2023-04-18T09:31:13.379Z,8.60
2023-04-18T09:33:52.780Z,8.97
2023-04-18T09:36:23.827Z,8.90
2023-04-18T09:38:55.332Z,8.80
2023-04-18T09:41:23.339Z,8.27
2023-04-18T09:43:50.129Z,9.17
2023-04-18T09:46:21.757Z,9.50
2023-04-18T09:48:48.543Z,9.27
2023-04-18T09:51:16.670Z,9.03
2023-04-18T09:53:44.894Z,8.83
2023-04-18T09:56:28.237Z,9.80
2023-04-18T09:59:07.336Z,8.63
2023-04-18T10:01:34.995Z,8.20
2023-04-18T10:04:07.786Z,8.57
2023-04-18T10:06:38.503Z,9.10
2023-04-18T10:09:06.386Z,8.87
2023-04-18T10:11:33.455Z,8.93
2023-04-18T10:14:11.830Z,8.60
2023-04-18T10:16:39.633Z,9.03
2023-04-18T10:19:26.451Z,8.57
2023-04-18T10:22:01.229Z,9.00
2023-04-18T10:24:57.086Z,8.37
2023-04-18T10:27:48.400Z,8.30
2023-04-18T10:30:18.741Z,8.10
2023-04-18T10:32:48.754Z,8.33
2023-04-18T10:35:15.503Z,8.47
2023-04-18T10:37:52.329Z,8.20
2023-04-18T10:40:33.196Z,7.63
2023-04-18T10:43:00.130Z,9.20
2023-04-18T10:45:29.716Z,7.90
2023-04-18T10:48:32.627Z,8.40
2023-04-18T10:51:18.699Z,8.60
2023-04-18T10:53:52.377Z,8.20
2023-04-18T10:56:20.487Z,8.27
2023-04-18T10:58:51.287Z,8.77
2023-04-18T11:01:27.062Z,8.47
2023-04-18T11:03:55.873Z,8.60
2023-04-18T11:06:27.235Z,8.30
2023-04-18T11:09:13.854Z,8.67
2023-04-18T11:11:41.585Z,7.90
2023-04-18T11:14:08.444Z,8.17
2023-04-18T11:16:35.677Z,8.20
2023-04-18T11:19:20.040Z,8.63
2023-04-18T11:21:46.923Z,7.93
2023-04-18T11:24:22.000Z,8.10
2023-04-18T11:26:48.650Z,7.90
2023-04-18T11:29:17.951Z,8.47
2023-04-18T11:31:55.819Z,7.40
2023-04-18T11:34:30.401Z,8.00
2023-04-18T11:36:57.422Z,8.53
2023-04-18T11:39:24.464Z,8.37
2023-04-18T11:41:51.356Z,7.57
2023-04-18T11:44:18.800Z,7.57
2023-04-18T11:46:45.501Z,7.37
2023-04-18T11:49:32.306Z,8.87
2023-04-18T11:52:01.125Z,8.20
2023-04-18T11:54:41.752Z,8.40
2023-04-18T11:57:29.219Z,8.53
2023-04-18T11:59:57.891Z,8.00
2023-04-18T12:02:45.882Z,8.17
2023-04-18T12:05:24.301Z,8.53
2023-04-18T12:07:51.321Z,8.50
2023-04-18T12:10:28.050Z,8.47
2023-04-18T12:12:58.697Z,8.50
2023-04-18T12:15:30.144Z,8.13
2023-04-18T12:18:01.606Z,8.27
2023-04-18T12:20:36.447Z,8.43
2023-04-18T12:23:03.817Z,7.77
2023-04-18T12:25:31.629Z,8.63
2023-04-18T12:27:58.353Z,8.07
2023-04-18T12:30:27.916Z,8.27
2023-04-18T12:32:58.005Z,7.73
2023-04-18T12:35:25.651Z,8.90
2023-04-18T12:37:54.352Z,8.83
2023-04-18T12:40:22.976Z,8.07
2023-04-18T12:42:51.032Z,8.53
2023-04-18T12:45:19.071Z,8.20
2023-04-18T12:47:47.492Z,8.60
2023-04-18T12:50:19.262Z,8.97
2023-04-18T12:52:46.750Z,8.00
2023-04-18T12:55:15.554Z,8.83
2023-04-18T12:57:43.160Z,8.00
2023-04-18T13:00:11.213Z,8.07
2023-04-18T13:02:40.303Z,8.73
2023-04-18T13:05:09.292Z,8.50
2023-04-18T13:07:37.979Z,9.13
2023-04-18T13:10:05.300Z,9.27
2023-04-18T13:12:32.035Z,7.77
2023-04-18T13:14:58.690Z,7.90
2023-04-18T13:17:26.222Z,8.20
2023-04-18T13:19:52.916Z,8.33
2023-04-18T13:22:20.747Z,7.93
2023-04-18T13:24:48.243Z,8.00
2023-04-18T13:27:15.402Z,7.90
2023-04-18T13:29:43.457Z,8.00
2023-04-18T13:32:10.363Z,8.47
2023-04-18T13:34:39.089Z,7.63
2023-04-18T13:37:06.494Z,8.00
2023-04-18T13:39:33.709Z,7.67
2023-04-18T13:42:02.966Z,7.60
2023-04-18T13:44:30.831Z,7.30
2023-04-18T13:46:57.901Z,7.83
2023-04-18T13:49:24.639Z,6.97
2023-04-18T13:51:53.526Z,7.20
2023-04-18T13:54:20.606Z,6.90
2023-04-18T13:56:47.352Z,7.60
2023-04-18T13:59:15.047Z,6.90
2023-04-18T14:01:42.829Z,6.70
2023-04-18T14:04:09.681Z,6.70
2023-04-18T14:06:36.609Z,6.30
2023-04-18T14:09:03.354Z,7.23
2023-04-18T14:11:30.120Z,5.93
2023-04-18T14:13:56.775Z,6.30
2023-04-18T14:16:23.781Z,5.43
2023-04-18T14:18:50.661Z,5.73
2023-04-18T14:21:17.408Z,5.60
2023-04-18T14:23:44.050Z,5.47
2023-04-18T14:26:11.217Z,5.60
2023-04-18T14:28:37.946Z,6.10
2023-04-18T14:31:06.502Z,6.20
2023-04-18T14:33:34.138Z,5.73
2023-04-18T14:36:02.470Z,5.47
2023-04-18T14:38:29.216Z,5.60
2023-04-18T14:40:56.019Z,5.60
2023-04-18T14:43:22.769Z,4.93
2023-04-18T14:45:49.699Z,5.10
2023-04-18T14:48:16.827Z,5.43
2023-04-18T14:50:43.865Z,5.30
2023-04-18T14:53:11.110Z,4.80
2023-04-18T14:55:37.945Z,4.70
2023-04-18T14:58:04.605Z,4.03
2023-04-18T15:00:32.465Z,4.43
2023-04-18T15:02:59.327Z,4.50
2023-04-18T15:05:26.513Z,4.00
2023-04-18T15:07:53.278Z,4.33
2023-04-18T15:10:22.716Z,4.17
2023-04-18T15:12:51.073Z,4.17
2023-04-18T15:15:19.411Z,4.27
2023-04-18T15:17:46.108Z,3.77
2023-04-18T15:20:13.087Z,4.23
2023-04-18T15:22:39.828Z,4.37
2023-04-18T15:25:07.350Z,4.60
2023-04-18T15:27:34.006Z,4.60
2023-04-18T15:30:00.851Z,4.43
2023-04-18T15:32:27.601Z,4.17
2023-04-18T15:34:54.307Z,4.43
2023-04-18T15:37:21.513Z,3.97
2023-04-18T15:39:48.254Z,4.43
2023-04-18T15:42:14.970Z,4.37
2023-04-18T15:44:41.631Z,4.50
2023-04-18T15:47:08.353Z,4.60
2023-04-18T15:49:38.623Z,4.20
2023-04-18T15:52:06.848Z,4.50
2023-04-18T15:54:33.540Z,4.50
2023-04-18T15:57:00.169Z,4.67
2023-04-18T15:59:26.906Z,3.70
2023-04-18T16:01:53.714Z,4.20
2023-04-18T16:04:20.479Z,3.83
2023-04-18T16:06:47.184Z,4.00
2023-04-18T16:09:14.464Z,3.33
2023-04-18T16:11:41.196Z,3.17
2023-04-18T16:14:07.892Z,3.40
2023-04-18T16:16:34.587Z,3.60
2023-04-18T16:19:01.267Z,3.63
2023-04-18T16:21:28.379Z,3.63
2023-04-18T16:23:55.070Z,3.90
2023-04-18T16:26:23.762Z,4.10
2023-04-18T16:28:50.955Z,4.33
2023-04-18T16:31:17.662Z,4.47
2023-04-18T16:33:45.365Z,3.90
2023-04-18T16:36:12.220Z,4.20
2023-04-18T16:38:38.924Z,4.10
2023-04-18T16:41:05.883Z,4.10
2023-04-18T16:43:36.319Z,3.87
2023-04-18T16:46:03.400Z,4.00
2023-04-18T16:48:30.233Z,3.80
2023-04-18T16:50:57.379Z,3.70
2023-04-18T16:53:24.603Z,3.07
2023-04-18T16:55:53.042Z,3.23
2023-04-18T16:58:21.170Z,3.40
2023-04-18T17:00:47.835Z,3.07
2023-04-18T17:03:14.576Z,3.47
2023-04-18T17:05:41.420Z,3.10
2023-04-18T17:08:08.668Z,3.57
2023-04-18T17:10:35.474Z,3.60
2023-04-18T17:13:03.404Z,3.00
2023-04-18T17:15:30.788Z,2.90
2023-04-18T17:18:00.269Z,3.00
2023-04-18T17:20:28.028Z,3.57
2023-04-18T17:22:55.254Z,2.90
2023-04-18T17:25:22.134Z,2.97
2023-04-18T17:27:48.888Z,2.80
2023-04-18T17:30:15.702Z,3.20
2023-04-18T17:32:45.901Z,3.30
2023-04-18T17:35:14.842Z,3.43
2023-04-18T17:37:42.748Z,2.80
2023-04-18T17:40:11.408Z,2.97
2023-04-18T17:42:38.342Z,3.27
2023-04-18T17:45:06.902Z,3.17
2023-04-18T17:47:34.613Z,3.00
2023-04-18T17:50:01.427Z,2.93
2023-04-18T17:52:31.237Z,3.37
2023-04-18T17:54:59.487Z,2.90
2023-04-18T17:57:26.702Z,3.20
2023-04-18T17:59:53.693Z,3.07
2023-04-18T18:02:20.539Z,3.13
2023-04-18T18:04:47.313Z,3.10
2023-04-18T18:07:14.077Z,2.93
2023-04-18T18:09:44.564Z,2.90
2023-04-18T18:12:11.727Z,3.10
2023-04-18T18:14:40.435Z,2.60
2023-04-18T18:17:07.451Z,2.83
2023-04-18T18:19:37.498Z,3.23
2023-04-18T18:22:04.265Z,3.90
2023-04-18T18:24:31.115Z,3.00
2023-04-18T18:26:58.136Z,2.80
2023-04-18T18:29:25.055Z,2.77
2023-04-18T18:31:51.755Z,2.70
2023-04-18T18:34:19.924Z,2.83
2023-04-18T18:36:47.231Z,3.80
2023-04-18T18:39:16.529Z,3.63
2023-04-18T18:41:43.666Z,3.10
2023-04-18T18:44:14.491Z,3.13
2023-04-18T18:46:43.163Z,3.20
2023-04-18T18:49:10.122Z,2.90
2023-04-18T18:51:37.171Z,3.17
2023-04-18T18:54:03.985Z,3.13
2023-04-18T18:56:30.690Z,2.87
2023-04-18T18:58:57.376Z,2.87
2023-04-18T19:01:24.137Z,3.00
2023-04-18T19:03:51.168Z,3.00
2023-04-18T19:06:18.087Z,2.90
2023-04-18T19:08:44.928Z,3.07
2023-04-18T19:11:12.793Z,3.20
2023-04-18T19:13:39.715Z,3.17
2023-04-18T19:16:06.511Z,3.57
2023-04-18T19:18:33.450Z,3.10
2023-04-18T19:21:00.164Z,2.77
2023-04-18T19:23:27.822Z,4.30
2023-04-18T19:25:54.754Z,4.07
2023-04-18T19:28:22.867Z,3.90
2023-04-18T19:30:50.298Z,2.60
2023-04-18T19:33:17.350Z,2.90
2023-04-18T19:35:44.060Z,2.67
2023-04-18T19:38:10.755Z,3.00
2023-04-18T19:40:37.752Z,3.10
2023-04-18T19:43:04.417Z,3.90
2023-04-18T19:45:31.715Z,4.23
2023-04-18T19:47:58.517Z,2.60
2023-04-18T19:50:25.370Z,2.80
2023-04-18T19:52:52.028Z,2.50
2023-04-18T19:55:18.709Z,2.60
2023-04-18T19:57:45.928Z,2.80
2023-04-18T20:00:13.452Z,2.50
2023-04-18T20:02:41.408Z,2.37
2023-04-18T20:05:09.297Z,2.67
2023-04-18T20:07:36.278Z,2.73
2023-04-18T20:10:04.362Z,2.83
2023-04-18T20:12:31.482Z,3.17
2023-04-18T20:14:59.001Z,3.13
2023-04-18T20:17:30.508Z,2.87
2023-04-18T20:19:57.829Z,2.97
2023-04-18T20:22:27.408Z,2.97
2023-04-18T20:24:57.121Z,2.90
2023-04-18T20:27:24.420Z,3.30
2023-04-18T20:29:51.156Z,3.07
2023-04-18T20:32:17.823Z,3.40
2023-04-18T20:34:46.639Z,3.43
2023-04-18T20:37:15.530Z,3.10
2023-04-18T20:39:42.343Z,3.20
2023-04-18T20:42:14.189Z,3.40
2023-04-18T20:44:43.247Z,2.83
2023-04-18T20:47:09.926Z,3.10
2023-04-18T20:49:36.730Z,3.30
2023-04-18T20:52:03.654Z,3.50
2023-04-18T20:54:30.488Z,3.30
2023-04-18T20:56:57.195Z,3.30
2023-04-18T20:59:24.126Z,3.23
2023-04-18T21:01:51.054Z,3.10
2023-04-18T21:04:18.085Z,3.40
2023-04-18T21:06:45.066Z,3.77
2023-04-18T21:09:11.842Z,3.30
2023-04-18T21:11:38.598Z,3.73
2023-04-18T21:14:06.754Z,3.50
2023-04-18T21:16:33.946Z,3.13
2023-04-18T21:19:00.699Z,3.93
2023-04-18T21:21:27.386Z,2.77
2023-04-18T21:23:54.146Z,2.87
2023-04-18T21:26:21.096Z,3.20
2023-04-18T21:28:56.325Z,3.73
2023-04-18T21:31:23.578Z,3.30
2023-04-18T21:33:57.326Z,3.17
2023-04-18T21:36:25.004Z,3.27
2023-04-18T21:38:53.313Z,3.43
2023-04-18T21:41:20.850Z,3.37
2023-04-18T21:43:47.882Z,3.37
2023-04-18T21:46:15.262Z,3.47
2023-04-18T21:48:43.549Z,3.30
2023-04-18T21:51:11.947Z,3.57
2023-04-18T21:53:39.037Z,3.60
2023-04-18T21:56:06.389Z,3.53
2023-04-18T21:58:33.445Z,3.63
2023-04-18T22:01:00.321Z,3.90
2023-04-18T22:03:29.049Z,3.27
2023-04-18T22:05:56.619Z,3.17
2023-04-18T22:08:26.519Z,3.47
2023-04-18T22:10:58.198Z,3.63
2023-04-18T22:13:30.145Z,3.27
2023-04-18T22:15:58.269Z,3.50
2023-04-18T22:18:25.457Z,4.10
2023-04-18T22:20:53.775Z,3.97
2023-04-18T22:23:20.715Z,3.57
2023-04-18T22:25:47.765Z,3.57
2023-04-18T22:28:14.585Z,4.00
2023-04-18T22:30:41.586Z,3.63
2023-04-18T22:33:09.257Z,3.10
2023-04-18T22:35:35.965Z,3.30
2023-04-18T22:38:02.655Z,3.30
2023-04-18T22:40:29.360Z,3.40
2023-04-18T22:42:56.097Z,3.60
2023-04-18T22:45:22.924Z,3.77
2023-04-18T22:47:49.602Z,3.33
2023-04-18T22:50:16.400Z,3.37
2023-04-18T22:52:43.077Z,3.60
2023-04-18T22:55:10.048Z,3.53
2023-04-18T22:57:38.476Z,3.90
2023-04-18T23:00:06.676Z,3.47
2023-04-18T23:02:33.495Z,3.43
2023-04-18T23:05:02.408Z,3.50
2023-04-18T23:07:29.200Z,3.40
2023-04-18T23:09:56.052Z,3.40
2023-04-18T23:12:22.827Z,3.43
2023-04-18T23:14:49.789Z,3.70
2023-04-18T23:17:16.669Z,3.80
2023-04-18T23:19:45.137Z,3.63
2023-04-18T23:22:11.953Z,4.10
2023-04-18T23:24:38.996Z,3.60
2023-04-18T23:27:05.913Z,3.90
2023-04-18T23:29:37.764Z,3.80
2023-04-18T23:32:05.694Z,3.33
2023-04-18T23:34:32.408Z,3.47
2023-04-18T23:37:00.099Z,3.73
2023-04-18T23:39:26.907Z,3.53
2023-04-18T23:41:53.585Z,4.10
2023-04-18T23:44:20.465Z,3.63
2023-04-18T23:46:47.859Z,3.73
2023-04-18T23:49:15.086Z,3.43
2023-04-18T23:51:42.168Z,3.63
2023-04-18T23:54:08.958Z,3.37
2023-04-18T23:56:35.689Z,3.60
2023-04-18T23:59:02.570Z,3.53
